Airport Name : Kagoshima

Other Name : Kagoshima

ICAO : RJFK

IATA : KOJ

FAA :

Latitude : 31.803397

Longitude : 130.719408

Country : Japan

Local Date and Time : 10/23/2018 4:55:00 PM

 

TAF (Terminal Aerodrome Forecast)

TAF AMD RJFK 230732Z 2307/2412 35005KT 9999 FEW020 SCT040 TEMPO 2307/2309 4000 -TSRA BR FEW020 FEW025CB SCT030 BKN035

 

METAR (METeorological Aerodrome Report)

RJFK 230700Z 24007KT 9999 -SHRA FEW020 BKN030 OVC100 20/17 Q1015 RMK 1CU020 6CU030 8AS100 A2999 VOLCANIC ASH CLOUD S

RJFK 230600Z 27005KT 230V290 9999 FEW025 BKN050 BKN150 23/14 Q1015 RMK 1CU025 6SC050 7AC150 A2998 VOLCANIC ASH CLOUD S

RJFK 230500Z 20005KT 140V250 9999 FEW025 SCT150 BKN/// 24/14 Q1015

RJFK 230400Z 20005KT 150V280 9999 SCT025 BKN150 23/17 Q1016 RMK 3CU025 7AC150 A3000 VOLCANIC ASH CLOUD S